Time;durP1;ratioP1;P1;durP2;ratioP2;P2;SDS_P1;SDS_P2;PMS_P1;PMS_P2;Temp;Humidity;BMP_temperature;BMP_pressure;BME280_temperature;BME280_humidity;BME280_pressure;Samples;Min_cycle;Max_cycle;Signal;HPM_P1;HPM_P2
2023/11/30 00:00:19;;;;;;;;;15.33;13.33;;;;;-143.90;100.00;76239.13;4887235;28;101957;-72
2023/11/30 00:02:46;;;;;;;;;12.33;10.67;;;;;-143.90;100.00;76235.00;4888242;28;101596;-72
2023/11/30 00:05:13;;;;;;;;;16.00;12.67;;;;;-143.90;100.00;76237.06;4884667;28;101935;-72
2023/11/30 00:07:40;;;;;;;;;21.67;18.67;;;;;-143.90;100.00;76230.88;4885091;28;103648;-72
2023/11/30 00:10:07;;;;;;;;;20.67;14.67;;;;;-143.90;100.00;76228.81;4890065;28;101930;-72
2023/11/30 00:12:34;;;;;;;;;23.00;19.67;;;;;-143.90;100.00;76226.72;4891269;28;102496;-72
2023/11/30 00:15:00;;;;;;;;;18.33;14.00;;;;;-143.90;100.00;76218.47;4889422;28;102867;-72
2023/11/30 00:17:29;;;;;;;;;14.67;13.67;;;;;-143.90;100.00;76218.47;4892816;28;102885;-72
2023/11/30 00:19:56;;;;;;;;;21.33;17.67;;;;;-143.90;100.00;76214.31;4893198;28;102169;-73
2023/11/30 00:22:22;;;;;;;;;22.67;16.00;;;;;-143.90;100.00;76203.97;4880108;28;103060;-72
2023/11/30 00:24:49;;;;;;;;;25.67;19.67;;;;;-143.90;100.00;76203.97;4890397;28;101893;-72
2023/11/30 00:27:16;;;;;;;;;16.00;13.00;;;;;-143.90;100.00;76193.66;4891903;28;103435;-72
2023/11/30 00:29:42;;;;;;;;;21.33;15.33;;;;;-143.90;100.00;76185.38;4905767;28;102248;-72
2023/11/30 00:32:09;;;;;;;;;22.33;16.67;;;;;-143.90;100.00;76189.50;4882986;28;102460;-72
2023/11/30 00:34:35;;;;;;;;;12.67;12.33;;;;;-143.90;100.00;76179.16;4892020;28;101932;-71
2023/11/30 00:37:02;;;;;;;;;18.67;16.00;;;;;-143.90;100.00;76177.09;4880284;28;103376;-71
2023/11/30 00:39:29;;;;;;;;;27.33;16.33;;;;;-143.90;100.00;76175.03;4887540;28;101767;-71
2023/11/30 00:41:55;;;;;;;;;22.00;17.00;;;;;-143.90;100.00;76164.69;4890808;28;101854;-71
2023/11/30 00:44:22;;;;;;;;;16.00;14.00;;;;;-143.90;100.00;76162.63;4889275;28;101607;-72
2023/11/30 00:46:49;;;;;;;;;19.67;19.67;;;;;-143.90;100.00;76156.41;4888405;28;103355;-72
2023/11/30 00:49:16;;;;;;;;;17.00;14.00;;;;;-143.90;100.00;76148.16;4889777;28;102105;-72
2023/11/30 00:51:42;;;;;;;;;16.00;14.00;;;;;-143.90;100.00;76146.09;4887569;28;101643;-72
2023/11/30 00:54:09;;;;;;;;;17.67;16.33;;;;;-143.90;100.00;76148.16;4879686;28;101928;-72
2023/11/30 00:56:35;;;;;;;;;13.67;11.00;;;;;-143.90;100.00;76144.00;4886311;28;103461;-72
2023/11/30 00:59:02;;;;;;;;;11.67;10.00;;;;;-143.90;100.00;76139.88;4880077;28;102007;-72
2023/11/30 01:01:29;;;;;;;;;21.33;13.33;;;;;-143.90;100.00;76139.88;4890186;28;102082;-72
2023/11/30 01:03:55;;;;;;;;;19.00;12.33;;;;;-143.90;100.00;76135.75;4882661;28;101971;-73
2023/11/30 01:06:22;;;;;;;;;10.33;10.00;;;;;-143.90;100.00;76133.69;4880289;28;108066;-72
2023/11/30 01:08:48;;;;;;;;;14.33;11.67;;;;;-143.90;100.00;76127.47;4889740;28;101989;-72
2023/11/30 01:11:15;;;;;;;;;7.33;5.00;;;;;-143.90;100.00;76123.34;4884654;28;101770;-72
2023/11/30 01:13:43;;;;;;;;;11.33;8.33;;;;;-143.90;100.00;76119.19;4886599;28;101644;-72
2023/11/30 01:16:10;;;;;;;;;7.33;5.00;;;;;-143.90;100.00;76115.06;4886236;28;103672;-72
2023/11/30 01:18:37;;;;;;;;;8.00;7.00;;;;;-143.90;100.00;76115.06;4888154;28;106696;-73
2023/11/30 01:21:04;;;;;;;;;7.00;7.00;;;;;-143.90;100.00;76110.94;4887784;28;101619;-72
2023/11/30 01:23:30;;;;;;;;;13.67;8.67;;;;;-143.90;100.00;76113.00;4888553;28;101619;-72
2023/11/30 01:25:57;;;;;;;;;7.67;6.67;;;;;-143.90;100.00;76123.34;4887721;28;103721;-72
2023/11/30 01:28:23;;;;;;;;;4.67;4.67;;;;;-143.90;100.00;76119.19;4888936;28;102780;-72
2023/11/30 01:30:50;;;;;;;;;10.67;5.00;;;;;-143.90;100.00;76127.47;4890726;28;101549;-72
2023/11/30 01:33:17;;;;;;;;;9.67;7.00;;;;;-143.90;100.00;76131.59;4898124;28;105369;-72
2023/11/30 01:35:44;;;;;;;;;14.33;10.67;;;;;-143.90;100.00;76135.75;4873787;28;103366;-72
2023/11/30 01:38:10;;;;;;;;;15.00;12.67;;;;;-143.90;100.00;76141.94;4888348;28;101825;-72
2023/11/30 01:40:37;;;;;;;;;12.33;10.67;;;;;-143.90;100.00;76144.00;4888836;28;101864;-72
2023/11/30 01:43:06;;;;;;;;;13.67;12.33;;;;;-143.90;100.00;76148.16;4884999;28;101809;-72
2023/11/30 01:45:33;;;;;;;;;10.33;7.33;;;;;-143.90;100.00;76137.81;4888695;28;103538;-72
2023/11/30 01:48:00;;;;;;;;;11.00;9.33;;;;;-143.90;100.00;76137.81;4882873;28;101917;-72
2023/11/30 01:50:27;;;;;;;;;12.00;11.00;;;;;-143.90;100.00;76141.94;4890625;28;101758;-71
2023/11/30 01:52:54;;;;;;;;;16.67;13.67;;;;;-143.90;100.00;76135.75;4874443;28;101662;-72
2023/11/30 01:55:21;;;;;;;;;14.33;11.67;;;;;-143.90;100.00;76137.81;4889972;28;103528;-73
2023/11/30 01:57:47;;;;;;;;;16.67;10.67;;;;;-143.90;100.00;76139.88;4884586;28;102197;-72
2023/11/30 02:00:15;;;;;;;;;8.00;8.00;;;;;-143.90;100.00;76135.75;4878785;28;101548;-72
2023/11/30 02:02:43;;;;;;;;;22.00;17.00;;;;;-143.90;100.00;76139.88;4888953;28;101851;-72
2023/11/30 02:05:10;;;;;;;;;16.67;14.67;;;;;-143.90;100.00;76131.59;4888139;28;103702;-72
2023/11/30 02:07:37;;;;;;;;;14.67;10.67;;;;;-143.90;100.00;76131.59;4878852;28;102506;-72
2023/11/30 02:10:03;;;;;;;;;15.67;13.33;;;;;-143.90;100.00;76135.75;4881157;28;101795;-73
2023/11/30 02:12:30;;;;;;;;;16.00;13.00;;;;;-143.90;100.00;76127.47;4890168;28;101647;-72
2023/11/30 02:15:00;;;;;;;;;15.67;13.67;;;;;-143.90;100.00;76135.75;4880066;28;103340;-72
2023/11/30 02:17:26;;;;;;;;;16.33;13.00;;;;;-143.90;100.00;76144.00;4890174;28;101886;-72
2023/11/30 02:19:53;;;;;;;;;16.33;10.00;;;;;-143.90;100.00;76146.09;4871988;28;102071;-72
2023/11/30 02:22:20;;;;;;;;;13.00;10.00;;;;;-143.90;100.00;76141.94;4886480;28;101794;-73
2023/11/30 02:24:46;;;;;;;;;12.67;9.33;;;;;-143.90;100.00;76148.16;4880630;28;103487;-73
2023/11/30 02:27:13;;;;;;;;;11.67;10.00;;;;;-143.90;100.00;76144.00;4889608;28;102509;-72
2023/11/30 02:29:39;;;;;;;;;9.00;7.67;;;;;-143.90;100.00;76144.00;4881710;28;102721;-72
2023/11/30 02:32:06;;;;;;;;;9.33;8.33;;;;;-143.90;100.00;76148.16;4895759;28;103385;-72
2023/11/30 02:34:33;;;;;;;;;5.67;4.67;;;;;-143.90;100.00;76141.94;4889234;28;103437;-73
2023/11/30 02:37:00;;;;;;;;;14.33;9.33;;;;;-143.90;100.00;76144.00;4893811;28;101941;-72
2023/11/30 02:39:26;;;;;;;;;6.33;5.00;;;;;-143.90;100.00;76146.09;4887493;28;101679;-72
2023/11/30 02:41:55;;;;;;;;;5.00;2.67;;;;;-143.90;100.00;76144.00;4887480;28;102716;-72
2023/11/30 02:44:21;;;;;;;;;9.33;5.00;;;;;-143.90;100.00;76141.94;4884381;28;103545;-72
2023/11/30 02:46:48;;;;;;;;;4.00;4.00;;;;;-143.90;100.00;76135.75;4885589;28;102066;-73
2023/11/30 02:49:16;;;;;;;;;4.00;2.00;;;;;-143.90;100.00;76135.75;4887559;28;101842;-73
2023/11/30 02:51:43;;;;;;;;;5.00;4.33;;;;;-143.90;100.00;76127.47;4891374;28;102031;-72
2023/11/30 02:54:09;;;;;;;;;13.00;10.67;;;;;-143.90;100.00;76137.81;4888640;28;103548;-72
2023/11/30 02:56:40;;;;;;;;;16.33;16.33;;;;;-143.90;100.00;76139.88;4888783;28;101777;-72
2023/11/30 02:59:06;;;;;;;;;42.33;32.00;;;;;-143.90;100.00;76156.41;4889190;28;101691;-72
2023/11/30 03:01:33;;;;;;;;;35.00;28.67;;;;;-143.90;100.00;76158.50;4887109;28;106465;-72
2023/11/30 03:04:00;;;;;;;;;34.00;30.67;;;;;-143.90;100.00;76152.28;4905852;28;107933;-72
2023/11/30 03:06:26;;;;;;;;;27.00;23.67;;;;;-143.90;100.00;76146.09;4891549;28;101912;-72
2023/11/30 03:08:53;;;;;;;;;23.33;17.33;;;;;-143.90;100.00;76131.59;4888416;28;102008;-72
2023/11/30 03:11:19;;;;;;;;;19.00;13.00;;;;;-143.90;100.00;76127.47;4895015;28;101927;-72
2023/11/30 03:13:46;;;;;;;;;10.00;10.00;;;;;-143.90;100.00;76119.19;4891883;28;103490;-72
2023/11/30 03:16:13;;;;;;;;;13.00;7.67;;;;;-143.90;100.00;76102.66;4885088;28;102137;-73
2023/11/30 03:18:40;;;;;;;;;10.33;7.33;;;;;-143.90;100.00;76102.66;4889262;28;103304;-72
2023/11/30 03:21:25;;;;;;;;;10.33;10.00;;;;;-143.90;100.00;76096.44;4893300;28;101980;-72
2023/11/30 03:23:54;;;;;;;;;8.33;7.00;;;;;-143.90;100.00;76090.25;4877920;28;103592;-73
2023/11/30 03:26:21;;;;;;;;;15.33;10.67;;;;;-143.90;100.00;76073.72;4884486;28;101662;-73
2023/11/30 03:28:48;;;;;;;;;13.67;10.33;;;;;-143.90;100.00;76067.50;4877680;28;101720;-73
2023/11/30 03:31:14;;;;;;;;;12.33;9.67;;;;;-143.90;100.00;76061.31;4882768;28;101621;-73
2023/11/30 03:33:41;;;;;;;;;16.00;13.33;;;;;-143.90;100.00;76055.09;4888533;28;103528;-73
2023/11/30 03:36:08;;;;;;;;;20.00;18.33;;;;;-143.90;100.00;76048.88;4887445;28;102530;-73
2023/11/30 03:38:35;;;;;;;;;23.67;21.00;;;;;-143.90;100.00;76042.69;4889501;28;101818;-73
2023/11/30 03:41:02;;;;;;;;;29.67;24.33;;;;;-143.90;100.00;76032.34;4889610;28;101866;-73
2023/11/30 03:43:28;;;;;;;;;24.33;21.00;;;;;-143.90;100.00;76024.06;4888753;28;107103;-73
2023/11/30 03:45:55;;;;;;;;;25.00;21.00;;;;;-143.90;100.00;76003.41;4889963;28;102935;-73
2023/11/30 03:48:21;;;;;;;;;22.00;17.67;;;;;-143.90;100.00;76011.66;4882331;28;101655;-73
2023/11/30 03:50:48;;;;;;;;;18.33;15.00;;;;;-143.90;100.00;76003.41;4889268;28;101671;-73
2023/11/30 03:53:14;;;;;;;;;19.33;16.00;;;;;-143.90;100.00;75995.13;4887477;28;103402;-73
2023/11/30 03:55:41;;;;;;;;;21.00;18.33;;;;;-143.90;100.00;75982.72;4879023;28;101963;-73
2023/11/30 03:58:07;;;;;;;;;17.67;14.00;;;;;-143.90;100.00;75976.53;4888828;28;101690;-73
2023/11/30 04:00:34;;;;;;;;;21.67;17.00;;;;;-143.90;100.00;75974.44;4893925;28;101870;-73
2023/11/30 04:03:01;;;;;;;;;19.67;14.67;;;;;-143.90;100.00;75966.19;4894514;28;107954;-73
2023/11/30 04:05:27;;;;;;;;;20.33;14.00;;;;;-143.90;100.00;75962.03;4883371;28;102137;-73
2023/11/30 04:07:54;;;;;;;;;15.33;14.00;;;;;-143.90;100.00;75951.69;4887711;28;101976;-74
2023/11/30 04:10:21;;;;;;;;;15.67;11.67;;;;;-143.90;100.00;75937.22;4890449;28;101624;-73
2023/11/30 04:12:47;;;;;;;;;14.00;13.00;;;;;-143.90;100.00;75933.09;4890264;28;103394;-73
2023/11/30 04:15:14;;;;;;;;;14.00;10.00;;;;;-143.90;100.00;75920.69;4887823;28;102458;-73
2023/11/30 04:17:40;;;;;;;;;11.33;10.00;;;;;-143.90;100.00;75910.34;4883825;28;101599;-73
2023/11/30 04:20:08;;;;;;;;;10.33;9.33;;;;;-143.90;100.00;75912.41;4886314;28;101955;-73
2023/11/30 04:22:35;;;;;;;;;9.33;8.00;;;;;-143.90;100.00;75897.94;4886333;28;103413;-73
2023/11/30 04:25:01;;;;;;;;;10.67;8.67;;;;;-143.90;100.00;75900.00;4894679;28;101896;-73
2023/11/30 04:27:28;;;;;;;;;11.67;11.00;;;;;-143.90;100.00;75881.41;4880957;28;101866;-74
2023/11/30 04:29:54;;;;;;;;;20.67;14.33;;;;;-143.90;100.00;75879.34;4888770;28;103261;-73
2023/11/30 04:32:21;;;;;;;;;17.33;12.67;;;;;-143.90;100.00;75873.13;4891362;28;103546;-73
2023/11/30 04:34:48;;;;;;;;;21.67;18.33;;;;;-143.90;100.00;75869.00;4802947;28;102441;-74
2023/11/30 04:37:14;;;;;;;;;15.00;14.33;;;;;-143.90;100.00;75854.53;4870694;28;101720;-74
2023/11/30 04:39:41;;;;;;;;;13.00;13.00;;;;;-143.90;100.00;75844.19;4878121;28;102807;-74
2023/11/30 04:42:08;;;;;;;;;12.00;10.33;;;;;-143.90;100.00;75846.25;4885135;28;103387;-74
2023/11/30 04:44:34;;;;;;;;;15.33;12.67;;;;;-143.90;100.00;75844.19;4889362;28;102113;-73
2023/11/30 04:47:01;;;;;;;;;13.00;11.00;;;;;-143.90;100.00;75842.13;4884100;28;101977;-74
2023/11/30 04:49:27;;;;;;;;;12.67;10.67;;;;;-143.90;100.00;75833.84;4884045;28;101903;-74
2023/11/30 04:51:54;;;;;;;;;10.33;10.00;;;;;-143.90;100.00;75833.84;4886321;28;103538;-74
2023/11/30 04:54:20;;;;;;;;;12.33;10.33;;;;;-143.90;100.00;75837.97;4887116;28;101770;-73
2023/11/30 04:56:47;;;;;;;;;8.67;7.67;;;;;-143.90;100.00;75833.84;4887228;28;101655;-75
2023/11/30 04:59:14;;;;;;;;;9.00;8.00;;;;;-143.90;100.00;75840.03;4891172;28;101894;-73
2023/11/30 05:01:40;;;;;;;;;8.67;8.00;;;;;-143.90;100.00;75844.19;4890480;28;103530;-73
2023/11/30 05:04:07;;;;;;;;;9.33;8.00;;;;;-143.90;100.00;75842.13;4886931;28;102543;-74
2023/11/30 05:06:34;;;;;;;;;8.00;7.00;;;;;-143.90;100.00;75846.25;4882510;28;102319;-73
2023/11/30 05:09:02;;;;;;;;;9.00;8.00;;;;;-143.90;100.00;75848.31;4886764;28;102845;-73
2023/11/30 05:11:29;;;;;;;;;11.00;9.33;;;;;-143.90;100.00;75846.25;4886850;28;107835;-74
2023/11/30 05:13:56;;;;;;;;;7.33;7.33;;;;;-143.90;100.00;75846.25;4883650;28;101830;-72
2023/11/30 05:16:22;;;;;;;;;11.00;7.00;;;;;-143.90;100.00;75846.25;4890235;28;101823;-72
2023/11/30 05:18:49;;;;;;;;;9.00;7.67;;;;;-143.90;100.00;75846.25;4795104;28;102210;-72
2023/11/30 05:21:16;;;;;;;;;12.00;8.00;;;;;-143.90;100.00;75846.25;4773134;28;103517;-72
2023/11/30 05:23:43;;;;;;;;;6.33;6.33;;;;;-143.90;100.00;75837.97;4769703;28;102433;-72
2023/11/30 05:26:10;;;;;;;;;10.00;8.00;;;;;-143.90;100.00;75848.31;4801671;28;101924;-72
2023/11/30 05:28:37;;;;;;;;;9.00;9.00;;;;;-143.90;100.00;75846.25;4891028;28;102043;-73
2023/11/30 05:31:04;;;;;;;;;10.33;8.00;;;;;-143.90;100.00;75854.53;4887595;28;102663;-71
2023/11/30 05:33:31;;;;;;;;;15.00;7.00;;;;;-143.90;100.00;75858.66;4890637;28;102026;-73
2023/11/30 05:35:58;;;;;;;;;14.00;12.67;;;;;-143.90;100.00;75862.78;4887551;28;101705;-73
2023/11/30 05:38:25;;;;;;;;;10.67;8.00;;;;;-143.90;100.00;75862.78;4891879;28;102281;-73
2023/11/30 05:40:54;;;;;;;;;10.67;9.00;;;;;-143.90;100.00;75866.94;4882949;28;103464;-73
2023/11/30 05:43:21;;;;;;;;;9.67;7.00;;;;;-143.90;100.00;75866.94;4880154;28;101911;-72
2023/11/30 05:45:47;;;;;;;;;11.67;11.00;;;;;-143.90;100.00;75875.19;4879066;28;101624;-72
2023/11/30 05:48:14;;;;;;;;;8.33;8.00;;;;;-143.90;100.00;75883.47;4888488;28;106439;-73
2023/11/30 05:50:40;;;;;;;;;7.67;7.67;;;;;-143.90;100.00;75895.88;4890449;28;103410;-72
2023/11/30 05:53:07;;;;;;;;;7.33;7.00;;;;;-143.90;100.00;75902.06;4886801;28;101840;-73
2023/11/30 05:55:34;;;;;;;;;7.00;7.00;;;;;-143.90;100.00;75916.56;4890012;28;101761;-73
2023/11/30 05:58:00;;;;;;;;;9.33;7.67;;;;;-143.90;100.00;75924.81;4887466;28;102108;-72
2023/11/30 06:00:27;;;;;;;;;8.00;8.00;;;;;-143.90;100.00;75933.09;4886471;28;104081;-73
2023/11/30 06:02:54;;;;;;;;;10.67;8.00;;;;;-143.90;100.00;75937.22;4851041;28;101781;-74
2023/11/30 06:05:20;;;;;;;;;8.00;8.00;;;;;-143.90;100.00;75951.69;4888429;28;101778;-74
2023/11/30 06:07:47;;;;;;;;;17.33;12.00;;;;;-143.90;100.00;75957.91;4892814;28;101956;-74
2023/11/30 06:10:15;;;;;;;;;21.33;18.67;;;;;-143.90;100.00;75964.13;4889832;28;103714;-73
2023/11/30 06:12:41;;;;;;;;;19.33;15.67;;;;;-143.90;100.00;75966.19;4885608;28;102104;-73
2023/11/30 06:15:09;;;;;;;;;18.00;16.00;;;;;-143.90;100.00;75976.53;4891113;28;101817;-74
2023/11/30 06:17:36;;;;;;;;;20.33;16.33;;;;;-143.90;100.00;75966.19;4889141;28;101694;-72
2023/11/30 06:20:03;;;;;;;;;21.67;17.00;;;;;-143.90;100.00;75968.25;4892707;28;103381;-73
2023/11/30 06:22:34;;;;;;;;;20.33;17.33;;;;;-143.90;100.00;75970.31;4891534;28;101912;-71
2023/11/30 06:25:01;;;;;;;;;18.33;14.67;;;;;-143.90;100.00;75962.03;4888010;28;101907;-73
2023/11/30 06:27:28;;;;;;;;;15.33;13.00;;;;;-143.90;100.00;75951.69;4880802;28;102171;-72
2023/11/30 06:29:54;;;;;;;;;18.33;11.33;;;;;-143.90;100.00;75949.63;4889206;28;103340;-73
2023/11/30 06:32:21;;;;;;;;;16.67;14.33;;;;;-143.90;100.00;75945.50;4884879;28;101679;-73
2023/11/30 06:34:48;;;;;;;;;15.67;14.00;;;;;-143.90;100.00;75945.50;4886967;28;101896;-74
2023/11/30 06:37:14;;;;;;;;;16.33;11.33;;;;;-143.90;100.00;75937.22;4887156;28;102079;-73
2023/11/30 06:39:41;;;;;;;;;18.00;14.67;;;;;-143.90;100.00;75935.16;4882873;28;103509;-74
2023/11/30 06:42:08;;;;;;;;;22.00;16.33;;;;;-143.90;100.00;75922.75;4894755;28;101976;-74
2023/11/30 06:44:35;;;;;;;;;14.67;13.33;;;;;-143.90;100.00;75926.88;4894695;28;101944;-73
2023/11/30 06:47:01;;;;;;;;;13.33;11.00;;;;;-143.90;100.00;75918.63;4886688;28;102063;-74
2023/11/30 06:49:28;;;;;;;;;20.67;16.33;;;;;-143.90;100.00;75912.41;4885487;28;103762;-74
2023/11/30 06:51:55;;;;;;;;;13.33;13.33;;;;;-143.90;100.00;75904.16;4889281;28;102308;-74
2023/11/30 06:54:22;;;;;;;;;16.33;14.00;;;;;-143.90;100.00;75897.94;4890740;28;101824;-74
2023/11/30 06:56:49;;;;;;;;;12.33;11.00;;;;;-143.90;100.00;75891.75;4894813;28;101631;-74
2023/11/30 06:59:15;;;;;;;;;11.00;8.00;;;;;-143.90;100.00;75887.59;4890705;28;103543;-74
2023/11/30 07:01:42;;;;;;;;;8.67;7.67;;;;;-143.90;100.00;75877.25;4888033;28;101879;-74
2023/11/30 07:04:08;;;;;;;;;14.33;12.00;;;;;-143.90;100.00;75866.94;4903579;28;101549;-73
2023/11/30 07:06:35;;;;;;;;;15.33;14.33;;;;;-143.90;100.00;75866.94;4890394;28;106603;-72
2023/11/30 07:09:03;;;;;;;;;21.33;18.33;;;;;-143.90;100.00;75862.78;4892449;28;103420;-74
2023/11/30 07:11:29;;;;;;;;;35.00;27.33;;;;;-143.90;100.00;75858.66;4884780;28;101970;-74
2023/11/30 07:13:56;;;;;;;;;21.00;15.67;;;;;-143.90;100.00;75837.97;4889202;28;102761;-74
2023/11/30 07:16:22;;;;;;;;;24.33;21.00;;;;;-143.90;100.00;75827.63;4891027;28;102343;-74
2023/11/30 07:18:51;;;;;;;;;26.00;21.00;;;;;-143.90;100.00;75835.91;4884241;28;105986;-74
2023/11/30 07:21:18;;;;;;;;;20.00;15.00;;;;;-143.90;100.00;75815.22;4881685;28;101873;-74
2023/11/30 07:23:45;;;;;;;;;19.67;15.33;;;;;-143.90;100.00;75809.03;4890885;28;102202;-74
2023/11/30 07:26:13;;;;;;;;;17.00;12.00;;;;;-143.90;100.00;75794.56;4886058;28;101582;-74
2023/11/30 07:28:41;;;;;;;;;15.67;13.33;;;;;-143.90;100.00;75784.22;4883217;28;103302;-74
2023/11/30 07:31:08;;;;;;;;;9.00;7.67;;;;;-143.90;100.00;75775.94;4883893;28;102175;-73
2023/11/30 07:33:37;;;;;;;;;10.67;8.00;;;;;-143.90;100.00;75767.69;4884125;28;102253;-74
2023/11/30 07:36:06;;;;;;;;;9.67;8.00;;;;;-143.90;100.00;75755.28;4894860;28;101808;-74
2023/11/30 07:38:33;;;;;;;;;10.33;7.00;;;;;-143.90;100.00;75742.88;4880080;28;107999;-74
2023/11/30 07:41:00;;;;;;;;;9.67;7.33;;;;;-143.90;100.00;75738.72;4890318;28;101783;-73
2023/11/30 07:43:27;;;;;;;;;14.33;9.67;;;;;-143.90;100.00;75734.59;4886457;28;101952;-75
2023/11/30 07:45:55;;;;;;;;;14.00;11.00;;;;;-143.90;100.00;75734.59;4888698;28;102812;-73
2023/11/30 07:48:22;;;;;;;;;18.00;15.67;;;;;-143.90;100.00;75720.13;4890175;28;103551;-73
2023/11/30 07:50:50;;;;;;;;;19.67;17.33;;;;;-143.90;100.00;75718.06;4883438;28;101926;-73
2023/11/30 07:53:18;;;;;;;;;21.00;19.00;;;;;-143.90;100.00;75705.66;4882177;28;101544;-73
2023/11/30 07:55:47;;;;;;;;;43.67;39.00;;;;;-143.90;100.00;75705.66;4884252;28;106156;-73
2023/11/30 07:58:13;;;;;;;;;33.00;32.33;;;;;-143.90;100.00;75676.69;4888777;28;103666;-73
2023/11/30 08:00:40;;;;;;;;;34.00;26.67;;;;;-143.90;99.51;75664.28;4892474;28;103013;-73
2023/11/30 08:03:07;;;;;;;;;25.67;22.00;;;;;-143.90;98.50;75656.03;4887853;28;101984;-73
2023/11/30 08:05:34;;;;;;;;;13.00;12.00;;;;;-143.90;98.29;75639.47;4888796;28;101738;-73
2023/11/30 08:08:01;;;;;;;;;27.00;23.00;;;;;-143.90;97.97;75629.13;4886363;28;108145;-73
2023/11/30 08:10:28;;;;;;;;;18.33;16.67;;;;;-143.90;97.25;75622.94;4889499;28;101825;-73
2023/11/30 08:12:54;;;;;;;;;27.00;20.00;;;;;-143.90;97.43;75620.88;4881702;28;101655;-73
2023/11/30 08:15:21;;;;;;;;;18.33;16.33;;;;;-143.90;98.04;75614.66;4889626;28;102173;-73
2023/11/30 08:17:48;;;;;;;;;15.67;12.00;;;;;-143.90;98.03;75610.53;4892484;28;103398;-73
2023/11/30 08:20:14;;;;;;;;;12.33;11.33;;;;;-143.90;97.74;75606.41;4891034;28;101577;-73
2023/11/30 08:22:41;;;;;;;;;15.25;13.00;;;;;-143.90;97.40;75589.84;4888938;28;102384;-73
2023/11/30 08:25:08;;;;;;;;;12.67;12.67;;;;;-143.90;96.61;75581.59;4891393;28;103085;-73
2023/11/30 08:27:35;;;;;;;;;15.33;10.67;;;;;-143.90;97.71;75569.19;4890694;28;103555;-73
2023/11/30 08:30:04;;;;;;;;;11.50;9.75;;;;;-143.90;96.65;75560.91;4891060;28;101701;-73
2023/11/30 08:32:30;;;;;;;;;7.00;5.75;;;;;-143.90;96.58;75550.56;4877980;28;102683;-73
2023/11/30 08:34:57;;;;;;;;;15.33;10.00;;;;;-143.90;96.74;75556.78;4894759;28;101772;-73
2023/11/30 08:37:23;;;;;;;;;12.25;9.75;;;;;-143.90;96.68;75546.44;4880299;28;103477;-73
2023/11/30 08:39:50;;;;;;;;;17.50;10.25;;;;;-143.90;96.24;75550.56;4889089;28;102563;-73
2023/11/30 08:42:17;;;;;;;;;12.75;10.75;;;;;-143.90;95.75;75542.31;4889157;28;101816;-73
2023/11/30 08:44:43;;;;;;;;;15.75;10.50;;;;;-143.90;95.85;75550.56;4889927;28;101548;-74
2023/11/30 08:47:10;;;;;;;;;11.75;8.50;;;;;-143.90;95.60;75542.31;4892504;28;103352;-74
2023/11/30 08:49:37;;;;;;;;;8.00;8.00;;;;;-143.90;96.17;75529.91;4892652;28;101910;-73
2023/11/30 08:52:04;;;;;;;;;12.75;10.00;;;;;-143.90;94.97;75519.56;4891191;28;101607;-73
2023/11/30 08:54:31;;;;;;;;;14.75;13.00;;;;;-143.90;96.03;75498.88;4887728;28;101746;-73
2023/11/30 08:56:58;;;;;;;;;16.75;14.25;;;;;-143.90;95.21;75469.94;4887617;28;103599;-73
2023/11/30 08:59:25;;;;;;;;;13.00;12.00;;;;;-143.90;93.45;75434.78;4882086;28;106231;-72
2023/11/30 09:01:51;;;;;;;;;19.50;16.25;;;;;-143.90;90.43;75405.84;4882175;28;102002;-73
2023/11/30 09:04:18;;;;;;;;;24.00;15.75;;;;;-143.90;88.67;75383.09;4887434;28;101765;-73
2023/11/30 09:06:45;;;;;;;;;16.50;14.50;;;;;-143.90;87.63;75364.50;4882743;28;103411;-73
2023/11/30 09:09:12;;;;;;;;;17.25;14.75;;;;;-143.90;85.34;75372.75;4884574;28;101959;-73
2023/11/30 09:11:39;;;;;;;;;23.75;16.25;;;;;-143.90;85.53;75387.22;4886920;28;101598;-72
2023/11/30 09:14:05;;;;;;;;;21.25;14.25;;;;;-143.90;84.76;75403.78;4884345;28;102093;-72
2023/11/30 09:16:32;;;;;;;;;18.00;15.00;;;;;-143.90;84.40;75420.31;4892703;28;108138;-73
2023/11/30 09:18:59;;;;;;;;;15.25;12.50;;;;;-143.90;86.45;75430.66;4884850;28;101702;-73
2023/11/30 09:21:25;;;;;;;;;14.75;11.00;;;;;-143.90;86.79;75436.84;4889291;28;101730;-72
2023/11/30 09:23:53;;;;;;;;;14.00;11.25;;;;;-143.90;86.85;75445.13;4886712;28;101614;-73
2023/11/30 09:26:20;;;;;;;;;16.50;10.00;;;;;-143.90;86.10;75465.81;4880810;28;103574;-73
2023/11/30 09:28:47;;;;;;;;;9.50;7.50;;;;;-143.90;87.63;75476.13;4888421;28;101882;-73
2023/11/30 09:31:14;;;;;;;;;16.25;13.50;;;;;-143.90;88.20;75496.81;4891553;28;102805;-73
2023/11/30 09:33:41;;;;;;;;;10.50;9.00;;;;;-143.90;88.15;75484.41;4887491;28;101781;-73
2023/11/30 09:36:09;;;;;;;;;10.00;9.00;;;;;-143.90;88.20;75486.47;4885821;28;103213;-73
2023/11/30 09:38:35;;;;;;;;;12.25;9.50;;;;;-143.90;88.08;75494.75;4891860;28;101784;-72
2023/11/30 09:41:05;;;;;;;;;9.00;7.75;;;;;-143.90;87.93;75498.88;4891763;28;101681;-73
2023/11/30 09:43:33;;;;;;;;;10.00;7.75;;;;;-143.90;88.67;75496.81;4888040;28;102760;-73
2023/11/30 09:45:59;;;;;;;;;6.00;6.00;;;;;-143.90;88.26;75511.28;4880238;28;103548;-73
2023/11/30 09:48:26;;;;;;;;;5.75;5.00;;;;;-143.90;88.20;75513.34;4888469;28;102149;-73
2023/11/30 09:50:53;;;;;;;;;6.00;5.00;;;;;-143.90;88.53;75511.28;4884081;28;101686;-73
2023/11/30 09:53:21;;;;;;;;;11.00;9.00;;;;;-143.90;88.22;75513.34;4882652;28;102133;-73
2023/11/30 09:55:47;;;;;;;;;11.25;8.75;;;;;-143.90;88.64;75505.09;4881923;28;103582;-73
2023/11/30 09:58:15;;;;;;;;;13.00;9.50;;;;;-143.90;88.43;75494.75;4887693;28;101931;-73
2023/11/30 10:00:42;;;;;;;;;9.00;8.50;;;;;-143.90;87.51;75467.88;4887063;28;101832;-73
2023/11/30 10:03:09;;;;;;;;;12.00;9.75;;;;;-143.90;87.20;75445.13;4885308;28;101704;-72
2023/11/30 10:05:35;;;;;;;;;8.50;5.75;;;;;-143.90;86.10;75428.59;4891286;28;103523;-73
2023/11/30 10:08:02;;;;;;;;;27.67;20.00;;;;;-143.90;85.77;75436.84;4885794;28;102484;-73
2023/11/30 10:10:29;;;;;;;;;17.00;13.33;;;;;-143.90;85.51;75401.72;4886638;28;102136;-73
2023/11/30 10:12:56;;;;;;;;;14.50;14.00;;;;;-143.90;83.54;75387.22;4882382;28;103287;-73
2023/11/30 10:15:23;;;;;;;;;14.50;13.00;;;;;-143.90;84.89;75370.69;4887296;28;103472;-73
2023/11/30 10:17:49;;;;;;;;;15.75;13.75;;;;;-143.90;82.56;75366.56;4888107;28;101893;-73
2023/11/30 10:20:19;;;;;;;;;25.75;19.75;;;;;-143.90;82.42;75370.69;4883313;28;102536;-73
2023/11/30 10:22:46;;;;;;;;;14.75;12.75;;;;;-143.90;81.53;75352.09;4902616;28;103060;-74
2023/11/30 10:25:13;;;;;;;;;18.50;13.25;;;;;-143.90;81.67;75339.69;4868361;28;103388;-73
2023/11/30 10:27:41;;;;;;;;;17.00;12.75;;;;;-143.90;81.43;75331.41;4770656;28;101794;-73
2023/11/30 10:30:10;;;;;;;;;17.25;14.00;;;;;-143.90;80.98;75323.16;4760743;28;101747;-73
2023/11/30 10:32:39;;;;;;;;;18.00;15.25;;;;;-143.90;79.69;75316.94;4757888;28;101936;-73
2023/11/30 10:35:13;;;;;;;;;22.00;13.50;;;;;-143.90;81.82;75310.75;4756856;28;108252;-73
2023/11/30 10:37:45;;;;;;;;;11.25;10.00;;;;;-143.90;80.23;75300.41;4765228;28;102239;-73
2023/11/30 10:40:12;;;;;;;;;18.25;14.75;;;;;-143.90;80.98;75283.84;4770600;28;102118;-73
2023/11/30 10:42:46;;;;;;;;;18.00;12.75;;;;;-143.90;80.56;75273.53;4771499;28;101542;-73
2023/11/30 10:45:14;;;;;;;;;17.00;14.00;;;;;-143.90;79.46;75263.19;4761936;28;108822;-73
2023/11/30 10:47:42;;;;;;;;;16.50;13.50;;;;;-143.90;79.66;75259.06;4770267;28;102307;-72
2023/11/30 10:50:11;;;;;;;;;14.00;11.50;;;;;-143.90;78.87;75250.78;4777097;28;102241;-73